Olivebridge, New York
Current Conditions -  °F | °C
As of 3:53 PM on Tuesday 27 Jan 2015 (Local Time) from KPOU Reporting Station
Broken Clouds Broken Clouds  
Wind Chill: 12°   Ceiling: 6000
Heat Index: 22°   Visibility: 10mi
Dew Point: 12°   Wind: 9mph
Humidity: 66%   Direction: 360°N
Pressure: 29.7"   Gusts: 23mph
Location:  41.93°N, 74.22°W
Report Text: KPOU 272053Z 36008G20KT 10SM BKN060 M06/M11 A2970 RMK AO2 SLP057 60000 T10561111 55006
Loading
Personal Weather Stations






























Interactive Weather Map New forecast layout! Learn more

10-Day Weather Forecast

Advertisements
Track Severe Weather on mobile